Time;durP1;ratioP1;P1;durP2;ratioP2;P2;SDS_P1;SDS_P2;PMS_P1;PMS_P2;Temp;Humidity;BMP_temperature;BMP_pressure;BME280_temperature;BME280_humidity;BME280_pressure;Samples;Min_cycle;Max_cycle;Signal;HPM_P1;HPM_P2
2021/01/25 00:01:06;;;;;;;;;;;1.50;99.90;;;;;;5113460;28;19927;-81
2021/01/25 00:03:32;;;;;;;;;;;1.50;99.90;;;;;;5095765;28;19912;-81
2021/01/25 00:05:57;;;;;;;;;;;1.50;99.90;;;;;;5113821;28;19912;-80
2021/01/25 00:08:23;;;;;;;;;;;1.50;99.90;;;;;;5095649;28;19908;-80
2021/01/25 00:10:48;;;;;;;;;;;1.60;99.90;;;;;;5095404;28;20006;-80
2021/01/25 00:13:14;;;;;;;;;;;1.60;99.90;;;;;;5113888;28;19937;-80
2021/01/25 00:15:39;;;;;;;;;;;1.60;99.90;;;;;;5113518;28;20335;-80
2021/01/25 00:18:05;;;;;;;;;;;1.60;99.90;;;;;;5102251;28;19907;-80
2021/01/25 00:20:30;;;;;;;;;;;1.60;99.90;;;;;;5115865;28;19907;-80
2021/01/25 00:22:55;;;;;;;;;;;1.70;99.90;;;;;;5115682;28;19911;-80
2021/01/25 00:25:21;;;;;;;;;;;1.70;99.90;;;;;;5115782;28;19912;-80
2021/01/25 00:27:47;;;;;;;;;;;1.70;99.90;;;;;;5115584;28;19990;-80
2021/01/25 00:30:16;;;;;;;;;;;1.70;99.90;;;;;;5115819;28;19912;-80
2021/01/25 00:32:42;;;;;;;;;;;1.70;99.90;;;;;;5115450;28;19911;-80
2021/01/25 00:35:08;;;;;;;;;;;1.70;99.90;;;;;;5115752;28;19907;-80
2021/01/25 00:37:33;;;;;;;;;;;1.80;99.90;;;;;;5133940;28;19947;-79
2021/01/25 00:39:59;;;;;;;;;;;1.80;99.90;;;;;;5133982;28;19914;-80
2021/01/25 00:42:24;;;;;;;;;;;1.80;99.90;;;;;;5134018;28;19907;-80
2021/01/25 00:44:50;;;;;;;;;;;1.80;99.90;;;;;;5133957;28;19912;-80
2021/01/25 00:47:15;;;;;;;;;;;1.80;99.90;;;;;;5115508;28;19911;-80
2021/01/25 00:49:41;;;;;;;;;;;1.80;99.90;;;;;;5134092;28;19908;-80
2021/01/25 00:52:07;;;;;;;;;;;1.80;99.90;;;;;;5115430;28;19957;-80
2021/01/25 00:54:33;;;;;;;;;;;1.90;99.90;;;;;;5117478;27;20286;-80
2021/01/25 00:56:58;;;;;;;;;;;1.90;99.90;;;;;;5137706;27;19928;-80
2021/01/25 00:59:24;;;;;;;;;;;1.90;99.90;;;;;;5137533;27;19916;-80
2021/01/25 01:01:49;;;;;;;;;;;1.90;99.90;;;;;;5118922;27;19914;-80
2021/01/25 01:04:15;;;;;;;;;;;1.90;99.90;;;;;;5137659;27;19912;-80
2021/01/25 01:06:41;;;;;;;;;;;1.90;99.90;;;;;;5119010;27;19986;-79
2021/01/25 01:09:06;;;;;;;;;;;1.90;99.90;;;;;;5137535;27;19912;-79
2021/01/25 01:11:32;;;;;;;;;;;1.90;99.90;;;;;;5119141;27;19933;-79
2021/01/25 01:13:57;;;;;;;;;;;1.90;99.90;;;;;;5137541;27;19907;-80
2021/01/25 01:16:22;;;;;;;;;;;1.90;99.90;;;;;;5137458;27;20283;-80
2021/01/25 01:18:48;;;;;;;;;;;1.90;99.90;;;;;;5105665;28;20378;-80
2021/01/25 01:21:13;;;;;;;;;;;1.90;99.90;;;;;;5098588;28;19951;-79
2021/01/25 01:23:39;;;;;;;;;;;1.90;99.90;;;;;;5098443;28;19908;-79
2021/01/25 01:26:04;;;;;;;;;;;1.90;99.90;;;;;;5116700;28;19919;-80
2021/01/25 01:28:30;;;;;;;;;;;1.90;99.90;;;;;;5098230;28;20424;-80
2021/01/25 01:30:55;;;;;;;;;;;1.90;99.90;;;;;;5116944;28;20305;-79
2021/01/25 01:33:20;;;;;;;;;;;1.90;99.90;;;;;;5098139;28;19993;-79
2021/01/25 01:35:46;;;;;;;;;;;1.90;99.90;;;;;;5116562;28;19914;-79
2021/01/25 01:38:11;;;;;;;;;;;1.90;99.90;;;;;;5116312;28;19960;-79
2021/01/25 01:40:37;;;;;;;;;;;1.90;99.90;;;;;;5116403;28;19908;-79
2021/01/25 01:43:02;;;;;;;;;;;1.90;99.90;;;;;;5116325;28;20251;-79
2021/01/25 01:45:28;;;;;;;;;;;1.90;99.90;;;;;;5097968;28;19911;-79
2021/01/25 01:47:54;;;;;;;;;;;1.90;99.90;;;;;;5097792;28;20410;-79
2021/01/25 01:50:20;;;;;;;;;;;1.90;99.90;;;;;;5116266;28;19915;-79
2021/01/25 01:52:46;;;;;;;;;;;1.90;99.90;;;;;;5116113;28;19908;-80
2021/01/25 01:55:12;;;;;;;;;;;1.90;99.90;;;;;;5116191;28;19914;-79
2021/01/25 01:57:39;;;;;;;;;;;1.90;99.90;;;;;;5116008;28;20338;-79
2021/01/25 02:00:05;;;;;;;;;;;1.90;99.90;;;;;;5097488;28;19923;-79
2021/01/25 02:02:31;;;;;;;;;;;1.90;99.90;;;;;;5097603;28;19935;-79
2021/01/25 02:04:57;;;;;;;;;;;1.90;99.90;;;;;;5115440;28;19955;-79
2021/01/25 02:07:23;;;;;;;;;;;1.90;99.90;;;;;;5097515;28;20346;-79
2021/01/25 02:09:48;;;;;;;;;;;1.90;99.90;;;;;;5097542;28;19954;-79
2021/01/25 02:12:16;;;;;;;;;;;1.90;99.90;;;;;;5097525;28;20061;-79
2021/01/25 02:14:42;;;;;;;;;;;1.90;99.90;;;;;;5115668;28;19915;-79
2021/01/25 02:17:08;;;;;;;;;;;1.90;99.90;;;;;;5115614;28;19953;-79
2021/01/25 02:19:36;;;;;;;;;;;1.90;99.90;;;;;;5116583;27;19998;-79
2021/01/25 02:22:21;;;;;;;;;;;1.90;99.90;;;;;;5136094;27;19907;-79
2021/01/25 02:25:00;;;;;;;;;;;1.90;99.90;;;;;;5117995;27;19951;-79
2021/01/25 02:27:29;;;;;;;;;;;2.00;99.90;;;;;;5117661;27;19964;-79
2021/01/25 02:29:55;;;;;;;;;;;2.00;99.90;;;;;;5135985;27;20358;-79
2021/01/25 02:32:20;;;;;;;;;;;2.00;99.90;;;;;;5117517;27;20062;-79
2021/01/25 02:34:46;;;;;;;;;;;2.00;99.90;;;;;;5117437;27;20374;-79
2021/01/25 02:37:13;;;;;;;;;;;2.00;99.90;;;;;;5117528;27;20279;-79
2021/01/25 02:39:38;;;;;;;;;;;2.00;99.90;;;;;;5117326;27;20368;-79
2021/01/25 02:42:04;;;;;;;;;;;2.00;99.90;;;;;;5135757;27;19947;-79
2021/01/25 02:44:30;;;;;;;;;;;2.00;99.90;;;;;;5135626;27;19908;-79
2021/01/25 02:46:57;;;;;;;;;;;2.00;99.90;;;;;;5135621;27;19908;-79
2021/01/25 02:49:23;;;;;;;;;;;2.00;99.90;;;;;;5135442;27;19913;-79
2021/01/25 02:51:48;;;;;;;;;;;2.00;99.90;;;;;;5135541;27;19907;-79
2021/01/25 02:54:13;;;;;;;;;;;2.00;99.90;;;;;;5135319;27;19927;-79
2021/01/25 02:56:39;;;;;;;;;;;2.00;99.90;;;;;;5117038;27;19915;-79
2021/01/25 02:59:05;;;;;;;;;;;2.00;99.90;;;;;;5135340;27;19914;-79
2021/01/25 03:01:30;;;;;;;;;;;2.00;99.90;;;;;;5116979;27;19915;-79
2021/01/25 03:03:56;;;;;;;;;;;1.90;99.90;;;;;;5116817;27;20000;-80
2021/01/25 03:06:21;;;;;;;;;;;2.00;99.90;;;;;;5116595;27;19912;-80
2021/01/25 03:08:47;;;;;;;;;;;1.90;99.90;;;;;;5116658;27;19908;-79
2021/01/25 03:11:13;;;;;;;;;;;1.90;99.90;;;;;;5135158;27;20006;-79
2021/01/25 03:13:39;;;;;;;;;;;1.90;99.90;;;;;;5116621;27;19912;-79
2021/01/25 03:16:08;;;;;;;;;;;1.90;99.90;;;;;;5116342;27;19916;-79
2021/01/25 03:18:33;;;;;;;;;;;1.90;99.90;;;;;;5123526;27;19914;-79
2021/01/25 03:20:59;;;;;;;;;;;1.90;99.90;;;;;;5096118;28;19907;-79
2021/01/25 03:23:24;;;;;;;;;;;1.90;99.90;;;;;;5114326;28;20087;-79
2021/01/25 03:25:50;;;;;;;;;;;1.90;99.90;;;;;;5096300;28;19911;-79
2021/01/25 03:28:15;;;;;;;;;;;1.90;99.90;;;;;;5114333;28;19947;-80
2021/01/25 03:30:40;;;;;;;;;;;1.90;99.90;;;;;;5114358;28;20359;-79
2021/01/25 03:33:06;;;;;;;;;;;1.90;99.90;;;;;;5114288;28;19935;-79
2021/01/25 03:35:32;;;;;;;;;;;2.00;99.90;;;;;;5095964;28;20042;-79
2021/01/25 03:37:58;;;;;;;;;;;2.00;99.90;;;;;;5114055;28;19908;-80
2021/01/25 03:40:23;;;;;;;;;;;2.00;99.90;;;;;;5114027;28;19908;-80
2021/01/25 03:42:49;;;;;;;;;;;2.00;99.90;;;;;;5114201;28;20290;-79
2021/01/25 03:45:14;;;;;;;;;;;2.00;99.90;;;;;;5095705;28;20073;-80
2021/01/25 03:47:40;;;;;;;;;;;2.00;99.90;;;;;;5096045;28;19908;-79
2021/01/25 03:50:06;;;;;;;;;;;2.00;99.90;;;;;;5114036;28;19912;-79
2021/01/25 03:52:31;;;;;;;;;;;2.00;99.90;;;;;;5095506;28;20363;-79
2021/01/25 03:54:57;;;;;;;;;;;2.00;99.90;;;;;;5113992;28;20374;-79
2021/01/25 03:57:22;;;;;;;;;;;2.00;99.90;;;;;;5113941;28;20248;-79
2021/01/25 03:59:48;;;;;;;;;;;2.00;99.90;;;;;;5113615;28;20064;-79
2021/01/25 04:02:13;;;;;;;;;;;2.10;99.90;;;;;;5095633;28;19911;-79
2021/01/25 04:04:42;;;;;;;;;;;2.10;99.90;;;;;;5113669;28;19908;-79
2021/01/25 04:07:08;;;;;;;;;;;2.00;99.90;;;;;;5095311;28;19908;-79
2021/01/25 04:09:33;;;;;;;;;;;2.10;99.90;;;;;;5095517;28;19908;-79
2021/01/25 04:11:59;;;;;;;;;;;2.10;99.90;;;;;;5113825;28;19915;-79
2021/01/25 04:14:24;;;;;;;;;;;2.00;99.90;;;;;;5113589;28;19960;-79
2021/01/25 04:16:50;;;;;;;;;;;2.10;99.90;;;;;;5111594;28;19908;-79
2021/01/25 04:19:15;;;;;;;;;;;2.00;99.90;;;;;;5095358;28;20377;-79
2021/01/25 04:21:40;;;;;;;;;;;2.10;99.90;;;;;;5113330;28;19915;-79
2021/01/25 04:24:06;;;;;;;;;;;2.00;99.90;;;;;;5095283;28;20443;-79
2021/01/25 04:26:32;;;;;;;;;;;1.90;99.90;;;;;;5101371;28;20316;-79
2021/01/25 04:28:57;;;;;;;;;;;1.90;99.90;;;;;;5118288;27;19907;-79
2021/01/25 04:31:23;;;;;;;;;;;1.90;99.90;;;;;;5138115;27;19951;-79
2021/01/25 04:33:48;;;;;;;;;;;1.90;99.90;;;;;;5138127;27;20354;-79
2021/01/25 04:36:13;;;;;;;;;;;1.90;99.90;;;;;;5138111;27;20363;-79
2021/01/25 04:38:39;;;;;;;;;;;1.90;99.90;;;;;;5119565;27;19981;-79
2021/01/25 04:41:05;;;;;;;;;;;1.90;99.90;;;;;;5137948;27;19914;-79
2021/01/25 04:43:31;;;;;;;;;;;1.90;99.90;;;;;;5119522;27;20256;-79
2021/01/25 04:45:56;;;;;;;;;;;1.80;99.90;;;;;;5137514;27;19922;-79
2021/01/25 04:48:24;;;;;;;;;;;1.90;99.90;;;;;;5137925;27;20006;-79
2021/01/25 04:50:51;;;;;;;;;;;1.90;99.90;;;;;;5137780;27;19907;-79
2021/01/25 04:53:17;;;;;;;;;;;1.80;99.90;;;;;;5119478;27;19918;-79
2021/01/25 04:55:42;;;;;;;;;;;1.80;99.90;;;;;;5119269;27;19907;-79
2021/01/25 04:58:08;;;;;;;;;;;1.90;99.90;;;;;;5137798;27;20006;-79
2021/01/25 05:00:34;;;;;;;;;;;1.90;99.90;;;;;;5118948;27;20286;-79
2021/01/25 05:02:59;;;;;;;;;;;1.90;99.90;;;;;;5137485;27;19907;-79
2021/01/25 05:05:25;;;;;;;;;;;1.90;99.90;;;;;;5118230;27;19911;-79
2021/01/25 05:07:50;;;;;;;;;;;1.90;99.90;;;;;;5118714;27;20029;-79
2021/01/25 05:10:16;;;;;;;;;;;1.90;99.90;;;;;;5119118;27;19918;-79
2021/01/25 05:12:48;;;;;;;;;;;1.90;99.90;;;;;;5119273;27;19952;-79
2021/01/25 05:15:31;;;;;;;;;;;1.90;99.90;;;;;;5137468;27;19908;-79
2021/01/25 05:17:57;;;;;;;;;;;1.80;99.90;;;;;;5113071;28;19912;-79
2021/01/25 05:20:23;;;;;;;;;;;1.80;99.90;;;;;;5098651;28;20279;-79
2021/01/25 05:22:49;;;;;;;;;;;1.70;99.90;;;;;;5098368;28;19908;-79
2021/01/25 05:25:22;;;;;;;;;;;1.70;99.90;;;;;;5116581;28;19912;-79
2021/01/25 05:27:47;;;;;;;;;;;1.70;99.90;;;;;;5116621;28;20358;-79
2021/01/25 05:30:13;;;;;;;;;;;1.70;99.90;;;;;;5116554;28;19929;-79
2021/01/25 05:32:45;;;;;;;;;;;1.70;99.90;;;;;;5116583;28;19918;-79
2021/01/25 05:35:11;;;;;;;;;;;1.70;99.90;;;;;;5116531;28;19912;-79
2021/01/25 05:37:36;;;;;;;;;;;1.60;99.90;;;;;;5116510;28;19977;-80
2021/01/25 05:40:02;;;;;;;;;;;1.60;99.90;;;;;;5097559;28;19914;-80
2021/01/25 05:42:31;;;;;;;;;;;1.60;99.90;;;;;;5098151;28;19908;-80
2021/01/25 05:45:03;;;;;;;;;;;1.50;99.90;;;;;;5097765;28;19924;-80
2021/01/25 05:47:28;;;;;;;;;;;1.50;99.90;;;;;;5098058;28;20049;-80
2021/01/25 05:49:54;;;;;;;;;;;1.60;99.90;;;;;;5116208;28;19952;-80
2021/01/25 05:52:19;;;;;;;;;;;1.50;99.90;;;;;;5098025;28;20347;-80
2021/01/25 05:54:45;;;;;;;;;;;1.50;99.90;;;;;;5115899;28;19915;-80
2021/01/25 05:57:10;;;;;;;;;;;1.50;99.90;;;;;;5097803;28;19908;-80
2021/01/25 05:59:36;;;;;;;;;;;1.40;99.90;;;;;;5096454;28;19932;-80
2021/01/25 06:02:01;;;;;;;;;;;1.30;99.90;;;;;;5097021;28;19908;-80
2021/01/25 06:04:27;;;;;;;;;;;1.30;99.90;;;;;;5096238;28;19915;-80
2021/01/25 06:07:03;;;;;;;;;;;1.30;99.90;;;;;;5096992;28;20019;-81
2021/01/25 06:09:34;;;;;;;;;;;1.20;99.90;;;;;;5115839;28;20432;-81
2021/01/25 06:12:03;;;;;;;;;;;1.20;99.90;;;;;;5115640;28;19943;-81
2021/01/25 06:14:34;;;;;;;;;;;1.20;99.90;;;;;;5115759;28;19933;-81
2021/01/25 06:16:59;;;;;;;;;;;1.10;99.90;;;;;;5097308;28;19952;-81
2021/01/25 06:19:25;;;;;;;;;;;1.10;99.90;;;;;;5127210;27;19915;-81
2021/01/25 06:21:51;;;;;;;;;;;1.10;99.90;;;;;;5112196;27;20002;-81
2021/01/25 06:24:18;;;;;;;;;;;1.10;99.90;;;;;;5135994;27;19954;-81
2021/01/25 06:26:45;;;;;;;;;;;1.10;99.90;;;;;;5135729;27;19955;-81
2021/01/25 06:29:10;;;;;;;;;;;1.00;99.90;;;;;;5127265;27;19935;-81
2021/01/25 06:31:39;;;;;;;;;;;1.00;99.90;;;;;;5099507;28;20370;-82
2021/01/25 06:34:05;;;;;;;;;;;1.00;99.90;;;;;;5115315;28;19917;-82
2021/01/25 06:36:34;;;;;;;;;;;1.00;99.90;;;;;;5115274;28;19915;-82
2021/01/25 06:39:01;;;;;;;;;;;1.00;99.90;;;;;;5096854;28;20363;-82
2021/01/25 06:41:34;;;;;;;;;;;1.00;99.90;;;;;;5096894;28;20294;-82
2021/01/25 06:44:00;;;;;;;;;;;1.00;99.90;;;;;;5115271;28;19912;-82
2021/01/25 06:46:25;;;;;;;;;;;0.90;99.90;;;;;;5096695;28;20004;-82
2021/01/25 06:48:52;;;;;;;;;;;0.90;99.90;;;;;;5113876;28;19916;-83
2021/01/25 06:51:18;;;;;;;;;;;0.90;99.90;;;;;;5095909;28;19912;-82
2021/01/25 06:53:47;;;;;;;;;;;0.90;99.90;;;;;;5114667;28;20379;-82
2021/01/25 06:56:12;;;;;;;;;;;0.90;99.90;;;;;;5096807;28;19911;-82
2021/01/25 06:58:44;;;;;;;;;;;0.80;99.90;;;;;;5113653;28;19998;-82
2021/01/25 07:01:11;;;;;;;;;;;0.80;99.90;;;;;;5096665;28;20387;-82
2021/01/25 07:03:43;;;;;;;;;;;0.80;99.90;;;;;;5120226;27;19915;-82
2021/01/25 07:06:13;;;;;;;;;;;0.70;99.90;;;;;;5119974;27;19912;-82
2021/01/25 07:08:38;;;;;;;;;;;0.70;99.90;;;;;;5114638;28;19915;-82
2021/01/25 07:11:04;;;;;;;;;;;0.70;99.90;;;;;;5114475;28;19907;-82
2021/01/25 07:13:35;;;;;;;;;;;0.60;99.90;;;;;;5096504;28;19908;-82
2021/01/25 07:16:00;;;;;;;;;;;0.60;99.90;;;;;;5114512;28;19998;-82
2021/01/25 07:18:27;;;;;;;;;;;0.60;99.90;;;;;;5124452;27;20438;-82
2021/01/25 07:20:54;;;;;;;;;;;0.60;99.90;;;;;;5134930;27;19998;-82
2021/01/25 07:23:20;;;;;;;;;;;0.60;99.90;;;;;;5110844;27;20285;-82
2021/01/25 07:25:51;;;;;;;;;;;0.60;99.90;;;;;;5124965;27;19911;-82
2021/01/25 07:28:16;;;;;;;;;;;0.50;99.90;;;;;;5133605;27;19912;-82
2021/01/25 07:30:42;;;;;;;;;;;0.50;99.90;;;;;;5116615;27;19994;-82
2021/01/25 07:33:07;;;;;;;;;;;0.60;99.90;;;;;;5107139;27;19912;-83
2021/01/25 07:35:33;;;;;;;;;;;0.60;99.90;;;;;;5115252;27;19915;-82
2021/01/25 07:37:58;;;;;;;;;;;0.60;99.90;;;;;;5094414;28;19908;-82
2021/01/25 07:40:24;;;;;;;;;;;0.60;99.90;;;;;;5113689;28;19954;-82
2021/01/25 07:42:50;;;;;;;;;;;0.50;99.90;;;;;;5101696;27;19912;-81
2021/01/25 07:45:16;;;;;;;;;;;0.50;99.90;;;;;;5114381;27;19911;-82
2021/01/25 07:47:45;;;;;;;;;;;0.50;99.90;;;;;;5115966;27;19916;-81
2021/01/25 07:50:11;;;;;;;;;;;0.60;99.90;;;;;;5134616;27;19907;-82
2021/01/25 07:52:36;;;;;;;;;;;0.60;99.90;;;;;;5134323;27;19912;-82
2021/01/25 07:55:15;;;;;;;;;;;0.60;99.90;;;;;;5115933;27;19908;-82
2021/01/25 07:57:46;;;;;;;;;;;0.60;99.90;;;;;;5134146;27;20386;-81
2021/01/25 08:00:15;;;;;;;;;;;0.60;99.90;;;;;;5115531;27;19926;-81
2021/01/25 08:02:42;;;;;;;;;;;0.60;99.90;;;;;;5133770;27;20355;-81
2021/01/25 08:05:11;;;;;;;;;;;0.60;99.90;;;;;;5098528;28;20287;-81
2021/01/25 08:07:36;;;;;;;;;;;0.60;99.90;;;;;;5113388;28;19918;-81
2021/01/25 08:10:02;;;;;;;;;;;0.50;99.90;;;;;;5095548;28;19907;-81
2021/01/25 08:12:28;;;;;;;;;;;0.50;99.90;;;;;;5095344;28;19908;-81
2021/01/25 08:15:00;;;;;;;;;;;0.50;99.90;;;;;;5095316;28;20060;-81
2021/01/25 08:17:30;;;;;;;;;;;0.50;99.90;;;;;;5095488;28;19951;-80
2021/01/25 08:20:02;;;;;;;;;;;0.50;99.90;;;;;;5115343;28;19914;-80
2021/01/25 08:22:33;;;;;;;;;;;0.50;99.90;;;;;;5128276;28;19960;-80
2021/01/25 08:25:00;;;;;;;;;;;0.50;99.90;;;;;;5115659;28;19908;-80
2021/01/25 08:27:27;;;;;;;;;;;0.60;99.90;;;;;;5115237;28;19907;-80
2021/01/25 08:30:01;;;;;;;;;;;0.60;99.90;;;;;;5115740;28;19908;-80
2021/01/25 08:32:27;;;;;;;;;;;0.60;99.90;;;;;;5115528;28;19959;-80
2021/01/25 08:35:04;;;;;;;;;;;0.60;99.90;;;;;;5134065;28;19908;-80
2021/01/25 08:37:31;;;;;;;;;;;0.60;99.90;;;;;;5114613;28;19908;-80
2021/01/25 08:39:56;;;;;;;;;;;0.60;99.90;;;;;;5131534;28;19957;-81
2021/01/25 08:42:24;;;;;;;;;;;0.60;99.90;;;;;;5097760;28;19998;-81
2021/01/25 08:45:09;;;;;;;;;;;0.60;99.90;;;;;;5095161;28;19915;-81
2021/01/25 08:47:35;;;;;;;;;;;0.60;99.90;;;;;;5094776;28;19950;-80
2021/01/25 08:50:00;;;;;;;;;;;0.60;99.90;;;;;;5129321;28;19908;-80
2021/01/25 08:52:39;;;;;;;;;;;0.60;99.90;;;;;;5113199;28;19907;-81
2021/01/25 08:55:13;;;;;;;;;;;0.60;99.90;;;;;;5113349;28;19915;-81
2021/01/25 08:57:40;;;;;;;;;;;0.60;99.90;;;;;;5113003;28;19908;-81
2021/01/25 09:00:10;;;;;;;;;;;0.70;99.90;;;;;;5129089;28;20067;-81
2021/01/25 09:02:36;;;;;;;;;;;0.70;99.90;;;;;;5112261;28;19908;-81
2021/01/25 09:05:01;;;;;;;;;;;0.80;99.90;;;;;;5094621;28;19908;-81
2021/01/25 09:07:27;;;;;;;;;;;0.80;99.90;;;;;;5094731;28;19915;-81
2021/01/25 09:09:53;;;;;;;;;;;0.80;99.90;;;;;;5094965;28;19907;-81
2021/01/25 09:12:19;;;;;;;;;;;0.80;99.90;;;;;;5112931;28;19908;-81
2021/01/25 09:14:44;;;;;;;;;;;0.80;99.90;;;;;;5095433;28;19915;-81
2021/01/25 09:17:11;;;;;;;;;;;0.90;99.90;;;;;;5098375;28;19915;-81
2021/01/25 09:19:37;;;;;;;;;;;0.90;99.90;;;;;;5098272;28;19912;-82
2021/01/25 09:22:03;;;;;;;;;;;0.90;99.90;;;;;;5116778;28;19989;-82
2021/01/25 09:24:28;;;;;;;;;;;0.90;99.90;;;;;;5132520;27;19946;-82
2021/01/25 09:26:54;;;;;;;;;;;1.00;99.90;;;;;;5098219;28;19951;-82
2021/01/25 09:29:19;;;;;;;;;;;1.00;99.90;;;;;;5116474;28;19912;-82
2021/01/25 09:31:45;;;;;;;;;;;1.00;99.90;;;;;;5098297;28;19916;-82
2021/01/25 09:34:11;;;;;;;;;;;1.00;99.90;;;;;;5116298;28;19908;-82
2021/01/25 09:36:37;;;;;;;;;;;1.10;99.90;;;;;;5116530;28;19907;-82
2021/01/25 09:39:02;;;;;;;;;;;1.10;99.90;;;;;;5116212;28;20443;-82
2021/01/25 09:41:28;;;;;;;;;;;1.10;99.90;;;;;;5116369;28;19908;-81
2021/01/25 09:43:54;;;;;;;;;;;1.20;99.90;;;;;;5116152;28;19908;-81
2021/01/25 09:46:20;;;;;;;;;;;1.20;99.90;;;;;;5116082;28;19919;-81
2021/01/25 09:48:46;;;;;;;;;;;1.20;99.90;;;;;;5116032;28;19908;-80
2021/01/25 09:51:11;;;;;;;;;;;1.20;99.90;;;;;;5116521;28;19960;-81
2021/01/25 09:53:36;;;;;;;;;;;1.30;99.90;;;;;;5116052;28;20426;-81
2021/01/25 09:56:02;;;;;;;;;;;1.40;99.90;;;;;;5116138;28;19912;-81
2021/01/25 09:58:28;;;;;;;;;;;1.40;99.90;;;;;;5115741;28;19919;-81
2021/01/25 10:00:53;;;;;;;;;;;1.50;99.90;;;;;;5116034;28;19920;-81
2021/01/25 10:03:19;;;;;;;;;;;1.60;99.90;;;;;;5097657;28;19908;-82
2021/01/25 10:05:44;;;;;;;;;;;1.60;99.90;;;;;;5115964;28;19969;-81
2021/01/25 10:08:10;;;;;;;;;;;1.60;99.90;;;;;;5115930;28;19908;-81
2021/01/25 10:10:35;;;;;;;;;;;1.70;99.90;;;;;;5134398;27;19911;-81
2021/01/25 10:13:00;;;;;;;;;;;1.80;99.90;;;;;;5136344;27;19907;-81
2021/01/25 10:15:26;;;;;;;;;;;1.80;99.90;;;;;;5136171;27;19911;-81
2021/01/25 10:17:52;;;;;;;;;;;1.90;99.90;;;;;;5112567;28;19915;-81
2021/01/25 10:20:17;;;;;;;;;;;1.90;99.90;;;;;;5097137;28;19908;-81
2021/01/25 10:22:43;;;;;;;;;;;2.00;99.90;;;;;;5115683;28;19915;-81
2021/01/25 10:25:09;;;;;;;;;;;2.00;99.90;;;;;;5115978;27;19919;-81
2021/01/25 10:27:35;;;;;;;;;;;2.10;99.90;;;;;;5133613;27;20355;-81
2021/01/25 10:30:02;;;;;;;;;;;2.10;99.90;;;;;;5127309;27;19922;-81
2021/01/25 10:32:27;;;;;;;;;;;2.20;99.90;;;;;;5118958;27;19915;-81
2021/01/25 10:34:53;;;;;;;;;;;2.20;99.90;;;;;;5114960;28;19908;-81
2021/01/25 10:37:18;;;;;;;;;;;2.30;99.90;;;;;;5096612;28;19908;-81
2021/01/25 10:39:45;;;;;;;;;;;2.40;99.90;;;;;;5096691;28;19915;-81
2021/01/25 10:42:10;;;;;;;;;;;2.50;99.90;;;;;;5096932;28;20011;-81
2021/01/25 10:44:36;;;;;;;;;;;2.60;99.90;;;;;;5096076;28;20458;-81
2021/01/25 10:47:01;;;;;;;;;;;2.60;99.90;;;;;;5114760;27;20354;-81
2021/01/25 10:49:27;;;;;;;;;;;2.70;99.90;;;;;;5135301;27;19954;-81
2021/01/25 10:51:52;;;;;;;;;;;2.80;99.90;;;;;;5116830;27;19934;-81
2021/01/25 10:54:22;;;;;;;;;;;3.00;99.90;;;;;;5116904;27;19954;-81
2021/01/25 10:56:48;;;;;;;;;;;3.10;99.90;;;;;;5116157;27;19998;-81
2021/01/25 10:59:16;;;;;;;;;;;3.60;99.90;;;;;;5116039;27;19957;-81
2021/01/25 11:01:42;;;;;;;;;;;4.70;99.90;;;;;;5116022;27;19971;-82
2021/01/25 11:04:07;;;;;;;;;;;6.00;99.90;;;;;;5126061;27;20382;-81
2021/01/25 11:06:33;;;;;;;;;;;6.80;99.90;;;;;;5106779;27;19911;-81
2021/01/25 11:08:58;;;;;;;;;;;6.90;99.90;;;;;;5105786;27;19907;-81
2021/01/25 11:11:24;;;;;;;;;;;6.70;99.90;;;;;;5118300;27;19908;-81
2021/01/25 11:13:49;;;;;;;;;;;7.10;99.70;;;;;;5114213;28;19994;-82
2021/01/25 11:16:15;;;;;;;;;;;7.50;98.70;;;;;;5121359;27;20274;-82
2021/01/25 11:18:40;;;;;;;;;;;7.80;97.90;;;;;;5103168;28;20021;-82
2021/01/25 11:21:06;;;;;;;;;;;8.00;97.60;;;;;;5114338;28;19961;-82
2021/01/25 11:23:31;;;;;;;;;;;7.80;97.10;;;;;;5095954;28;19930;-81
2021/01/25 11:25:56;;;;;;;;;;;7.80;97.30;;;;;;5095352;28;19928;-81
2021/01/25 11:28:22;;;;;;;;;;;7.20;95.80;;;;;;5095544;28;20374;-81
2021/01/25 11:30:48;;;;;;;;;;;7.00;95.70;;;;;;5113750;28;19908;-81
2021/01/25 11:33:14;;;;;;;;;;;7.40;95.60;;;;;;5114103;28;19908;-81
2021/01/25 11:35:40;;;;;;;;;;;7.50;95.80;;;;;;5113780;28;20383;-81
2021/01/25 11:38:05;;;;;;;;;;;7.40;95.10;;;;;;5094823;28;19908;-81
2021/01/25 11:40:31;;;;;;;;;;;7.50;94.10;;;;;;5123708;27;19908;-81
2021/01/25 11:42:56;;;;;;;;;;;7.70;94.90;;;;;;5107224;27;20108;-81
2021/01/25 11:45:22;;;;;;;;;;;8.40;93.80;;;;;;5131413;27;19924;-81
2021/01/25 11:47:47;;;;;;;;;;;8.80;92.30;;;;;;5105687;27;20605;-81
2021/01/25 11:50:13;;;;;;;;;;;9.10;91.90;;;;;;5104774;27;19915;-81
2021/01/25 11:52:38;;;;;;;;;;;9.10;91.30;;;;;;5120496;27;20294;-81
2021/01/25 11:55:05;;;;;;;;;;;8.80;89.00;;;;;;5123135;27;19920;-81
2021/01/25 11:57:31;;;;;;;;;;;8.50;89.70;;;;;;5120958;27;20272;-81
2021/01/25 11:59:56;;;;;;;;;;;8.00;90.10;;;;;;5106783;27;19968;-81
2021/01/25 12:02:24;;;;;;;;;;;8.40;90.10;;;;;;5106030;28;19908;-81
2021/01/25 12:04:50;;;;;;;;;;;8.40;90.30;;;;;;5124521;27;19912;-81
2021/01/25 12:07:16;;;;;;;;;;;7.90;90.60;;;;;;5123026;27;20356;-81
2021/01/25 12:09:42;;;;;;;;;;;7.40;91.30;;;;;;5104599;28;20289;-81
2021/01/25 12:12:07;;;;;;;;;;;7.10;92.00;;;;;;5106300;28;19998;-81
2021/01/25 12:14:33;;;;;;;;;;;6.70;92.20;;;;;;5119546;28;20291;-81
2021/01/25 12:16:58;;;;;;;;;;;6.80;92.90;;;;;;5119074;28;19908;-81
2021/01/25 12:19:24;;;;;;;;;;;6.90;92.60;;;;;;5120608;28;19959;-81
2021/01/25 12:21:50;;;;;;;;;;;7.20;92.10;;;;;;5123820;28;19908;-80
2021/01/25 12:24:15;;;;;;;;;;;7.20;91.80;;;;;;5104384;28;20389;-81
2021/01/25 12:26:41;;;;;;;;;;;6.90;92.30;;;;;;5122983;28;19911;-81
2021/01/25 12:29:06;;;;;;;;;;;6.70;91.70;;;;;;5124264;28;19921;-81
2021/01/25 12:31:32;;;;;;;;;;;6.50;92.10;;;;;;5122219;28;20378;-81
2021/01/25 12:33:57;;;;;;;;;;;6.50;92.60;;;;;;5123510;28;19992;-81
2021/01/25 12:36:23;;;;;;;;;;;6.70;92.90;;;;;;5105573;28;19953;-81
2021/01/25 12:38:48;;;;;;;;;;;6.90;92.90;;;;;;5122172;28;19961;-81
2021/01/25 12:41:14;;;;;;;;;;;6.60;91.90;;;;;;5123994;28;19907;-81
2021/01/25 12:43:39;;;;;;;;;;;6.60;92.20;;;;;;5105071;28;20001;-81
2021/01/25 12:46:05;;;;;;;;;;;6.50;92.10;;;;;;5104083;28;19980;-80
2021/01/25 12:48:30;;;;;;;;;;;6.40;91.60;;;;;;5124024;27;20005;-81
2021/01/25 12:50:55;;;;;;;;;;;6.30;92.20;;;;;;5106777;27;20166;-81
2021/01/25 12:53:21;;;;;;;;;;;6.30;92.50;;;;;;5108491;27;19908;-81
2021/01/25 12:55:46;;;;;;;;;;;6.50;92.40;;;;;;5127889;27;20024;-81
2021/01/25 12:58:12;;;;;;;;;;;6.90;91.50;;;;;;5125988;27;20423;-81
2021/01/25 13:00:37;;;;;;;;;;;7.10;91.00;;;;;;5108594;27;19920;-81
2021/01/25 13:03:04;;;;;;;;;;;7.10;90.40;;;;;;5127534;27;19907;-81
2021/01/25 13:05:29;;;;;;;;;;;7.10;90.60;;;;;;5125466;27;19915;-82
2021/01/25 13:07:55;;;;;;;;;;;7.30;90.70;;;;;;5126259;27;19908;-81
2021/01/25 13:10:20;;;;;;;;;;;7.40;90.50;;;;;;5126623;27;19908;-81
2021/01/25 13:12:46;;;;;;;;;;;7.70;89.90;;;;;;5127665;27;19908;-81
2021/01/25 13:15:16;;;;;;;;;;;7.70;89.10;;;;;;5107216;27;19915;-82
2021/01/25 13:17:43;;;;;;;;;;;7.70;87.60;;;;;;5126575;27;19908;-81
2021/01/25 13:20:09;;;;;;;;;;;7.50;87.70;;;;;;5098750;28;20006;-81
2021/01/25 13:22:37;;;;;;;;;;;7.40;87.30;;;;;;5098447;28;19961;-81
2021/01/25 13:25:04;;;;;;;;;;;7.40;88.30;;;;;;5116648;28;19914;-82
2021/01/25 13:27:29;;;;;;;;;;;7.40;88.00;;;;;;5132114;27;19914;-82
2021/01/25 13:29:54;;;;;;;;;;;7.50;87.90;;;;;;5098292;28;19908;-82
2021/01/25 13:32:20;;;;;;;;;;;7.40;86.70;;;;;;5098242;28;19943;-82
2021/01/25 13:34:45;;;;;;;;;;;7.30;86.70;;;;;;5098142;28;20370;-81
2021/01/25 13:37:11;;;;;;;;;;;7.30;86.20;;;;;;5116448;28;19907;-81
2021/01/25 13:39:39;;;;;;;;;;;7.40;87.00;;;;;;5116114;28;19972;-81
2021/01/25 13:42:04;;;;;;;;;;;7.60;86.00;;;;;;5116191;28;20299;-81
2021/01/25 13:44:30;;;;;;;;;;;7.70;85.00;;;;;;5116415;28;19908;-81
2021/01/25 13:46:55;;;;;;;;;;;7.70;83.20;;;;;;5097880;28;19911;-82
2021/01/25 13:49:21;;;;;;;;;;;7.60;84.30;;;;;;5097834;28;19908;-82
2021/01/25 13:51:46;;;;;;;;;;;7.50;84.30;;;;;;5121408;27;19918;-81
2021/01/25 13:54:12;;;;;;;;;;;7.40;85.00;;;;;;5107805;27;19912;-81
2021/01/25 13:56:37;;;;;;;;;;;7.40;85.30;;;;;;5125141;27;20324;-82
2021/01/25 13:59:05;;;;;;;;;;;7.50;86.00;;;;;;5126760;27;19914;-82
2021/01/25 14:01:31;;;;;;;;;;;7.50;87.30;;;;;;5098872;28;19965;-82
2021/01/25 14:03:56;;;;;;;;;;;7.60;88.20;;;;;;5115295;28;20325;-82
2021/01/25 14:06:22;;;;;;;;;;;7.70;86.80;;;;;;5114730;28;19955;-82
2021/01/25 14:08:47;;;;;;;;;;;7.80;85.80;;;;;;5115714;28;19955;-82
2021/01/25 14:11:13;;;;;;;;;;;7.90;86.10;;;;;;5115651;28;19908;-82
2021/01/25 14:13:38;;;;;;;;;;;8.00;85.30;;;;;;5115817;28;19997;-82
2021/01/25 14:16:04;;;;;;;;;;;7.90;83.00;;;;;;5097150;28;19930;-82
2021/01/25 14:18:30;;;;;;;;;;;7.60;84.60;;;;;;5123925;27;20040;-82
2021/01/25 14:20:55;;;;;;;;;;;7.40;87.10;;;;;;5120679;27;19908;-82
2021/01/25 14:23:21;;;;;;;;;;;7.30;86.90;;;;;;5115654;28;19998;-82
2021/01/25 14:25:46;;;;;;;;;;;7.10;87.80;;;;;;5114918;28;19924;-82